sensor_id;sensor_type;location;lat;lon;timestamp;pressure;altitude;pressure_sealevel;temperature;humidity
24422;BME280;12600;53.326;-6.298;2022-08-02T00:01:04;100517.59;;;22.21;82.21
24422;BME280;12600;53.326;-6.298;2022-08-02T00:03:34;100512.00;;;22.21;82.23
24422;BME280;12600;53.326;-6.298;2022-08-02T00:06:05;100501.69;;;22.18;82.43
24422;BME280;12600;53.326;-6.298;2022-08-02T00:08:34;100511.69;;;22.33;81.79
24422;BME280;12600;53.326;-6.298;2022-08-02T00:11:03;100519.19;;;22.26;81.98
24422;BME280;12600;53.326;-6.298;2022-08-02T00:13:32;100514.44;;;22.26;82.34
24422;BME280;12600;53.326;-6.298;2022-08-02T00:16:03;100500.91;;;22.28;82.19
24422;BME280;12600;53.326;-6.298;2022-08-02T00:18:32;100535.94;;;22.33;81.83
24422;BME280;12600;53.326;-6.298;2022-08-02T00:21:03;100505.28;;;22.29;82.01
24422;BME280;12600;53.326;-6.298;2022-08-02T00:23:33;100520.00;;;22.26;82.32
24422;BME280;12600;53.326;-6.298;2022-08-02T00:26:22;100498.53;;;22.27;82.41
24422;BME280;12600;53.326;-6.298;2022-08-02T00:28:51;100491.78;;;22.31;81.96
24422;BME280;12600;53.326;-6.298;2022-08-02T00:31:21;100499.72;;;22.29;81.69
24422;BME280;12600;53.326;-6.298;2022-08-02T00:33:50;100477.44;;;22.26;82.01
24422;BME280;12600;53.326;-6.298;2022-08-02T00:36:41;100480.25;;;22.37;81.91
24422;BME280;12600;53.326;-6.298;2022-08-02T00:39:10;100475.09;;;22.35;81.92
24422;BME280;12600;53.326;-6.298;2022-08-02T00:41:59;100477.91;;;22.42;81.49
24422;BME280;12600;53.326;-6.298;2022-08-02T00:44:29;100482.66;;;22.38;81.92
24422;BME280;12600;53.326;-6.298;2022-08-02T00:46:58;100467.53;;;22.36;81.88
24422;BME280;12600;53.326;-6.298;2022-08-02T00:49:28;100460.75;;;22.29;82.17
24422;BME280;12600;53.326;-6.298;2022-08-02T00:52:01;100438.47;;;22.29;82.00
24422;BME280;12600;53.326;-6.298;2022-08-02T00:54:30;100444.88;;;22.41;81.71
24422;BME280;12600;53.326;-6.298;2022-08-02T00:56:59;100443.31;;;22.47;81.19
24422;BME280;12600;53.326;-6.298;2022-08-02T00:59:29;100444.09;;;22.44;81.08
24422;BME280;12600;53.326;-6.298;2022-08-02T01:01:58;100438.13;;;22.42;80.87
24422;BME280;12600;53.326;-6.298;2022-08-02T01:04:27;100440.91;;;22.45;81.12
24422;BME280;12600;53.326;-6.298;2022-08-02T01:07:01;100437.31;;;22.38;80.95
24422;BME280;12600;53.326;-6.298;2022-08-02T01:09:41;100423.03;;;22.39;80.87
24422;BME280;12600;53.326;-6.298;2022-08-02T01:12:10;100424.59;;;22.40;80.69
24422;BME280;12600;53.326;-6.298;2022-08-02T01:14:42;100440.09;;;22.34;80.88
24422;BME280;12600;53.326;-6.298;2022-08-02T01:17:17;100446.47;;;22.38;81.02
24422;BME280;12600;53.326;-6.298;2022-08-02T01:19:53;100443.69;;;22.42;81.17
24422;BME280;12600;53.326;-6.298;2022-08-02T01:26:05;100441.31;;;22.40;81.22
24422;BME280;12600;53.326;-6.298;2022-08-02T01:28:44;100440.50;;;22.32;81.59
24422;BME280;12600;53.326;-6.298;2022-08-02T01:31:24;100453.56;;;22.21;82.05
24422;BME280;12600;53.326;-6.298;2022-08-02T01:34:01;100471.09;;;22.29;82.04
24422;BME280;12600;53.326;-6.298;2022-08-02T01:36:37;100467.16;;;22.44;81.90
24422;BME280;12600;53.326;-6.298;2022-08-02T01:39:11;100461.59;;;22.41;81.70
24422;BME280;12600;53.326;-6.298;2022-08-02T01:42:00;100471.94;;;22.40;82.24
24422;BME280;12600;53.326;-6.298;2022-08-02T01:44:35;100473.16;;;22.46;82.00
24422;BME280;12600;53.326;-6.298;2022-08-02T01:47:08;100477.50;;;22.51;82.01
24422;BME280;12600;53.326;-6.298;2022-08-02T01:49:41;100477.91;;;22.53;81.78
24422;BME280;12600;53.326;-6.298;2022-08-02T01:52:12;100483.09;;;22.54;81.71
24422;BME280;12600;53.326;-6.298;2022-08-02T01:54:59;100467.97;;;22.48;81.87
24422;BME280;12600;53.326;-6.298;2022-08-02T01:57:33;100478.31;;;22.48;82.13
24422;BME280;12600;53.326;-6.298;2022-08-02T02:00:11;100457.25;;;22.61;81.69
24422;BME280;12600;53.326;-6.298;2022-08-02T02:02:43;100465.59;;;22.61;81.72
24422;BME280;12600;53.326;-6.298;2022-08-02T02:05:17;100468.75;;;22.45;81.56
24422;BME280;12600;53.326;-6.298;2022-08-02T02:07:55;100462.41;;;22.52;81.29
24422;BME280;12600;53.326;-6.298;2022-08-02T02:10:28;100445.69;;;22.48;80.76
24422;BME280;12600;53.326;-6.298;2022-08-02T02:13:02;100463.59;;;22.51;81.04
24422;BME280;12600;53.326;-6.298;2022-08-02T02:15:34;100456.84;;;22.59;80.89
24422;BME280;12600;53.326;-6.298;2022-08-02T02:18:10;100466.41;;;22.65;80.29
24422;BME280;12600;53.326;-6.298;2022-08-02T02:20:40;100456.06;;;22.62;80.43
24422;BME280;12600;53.326;-6.298;2022-08-02T02:23:11;100454.47;;;22.61;80.46
24422;BME280;12600;53.326;-6.298;2022-08-02T02:25:40;100456.44;;;22.53;80.55
24422;BME280;12600;53.326;-6.298;2022-08-02T02:28:20;100444.91;;;22.69;80.28
24422;BME280;12600;53.326;-6.298;2022-08-02T02:30:58;100462.41;;;22.70;80.44
24422;BME280;12600;53.326;-6.298;2022-08-02T02:33:30;100458.44;;;22.60;80.54
24422;BME280;12600;53.326;-6.298;2022-08-02T02:36:02;100461.63;;;22.66;80.64
24422;BME280;12600;53.326;-6.298;2022-08-02T02:38:32;100452.88;;;22.56;80.51
24422;BME280;12600;53.326;-6.298;2022-08-02T02:41:04;100457.66;;;22.56;80.62
24422;BME280;12600;53.326;-6.298;2022-08-02T02:43:35;100452.06;;;22.49;80.83
24422;BME280;12600;53.326;-6.298;2022-08-02T02:46:09;100469.16;;;22.51;80.99
24422;BME280;12600;53.326;-6.298;2022-08-02T02:48:44;100456.03;;;22.51;80.66
24422;BME280;12600;53.326;-6.298;2022-08-02T02:51:14;100469.56;;;22.60;80.80
24422;BME280;12600;53.326;-6.298;2022-08-02T02:53:44;100474.75;;;22.58;80.97
24422;BME280;12600;53.326;-6.298;2022-08-02T02:56:38;100444.50;;;22.49;80.62
24422;BME280;12600;53.326;-6.298;2022-08-02T02:59:10;100452.06;;;22.59;80.60
24422;BME280;12600;53.326;-6.298;2022-08-02T03:01:42;100466.78;;;22.56;80.57
24422;BME280;12600;53.326;-6.298;2022-08-02T03:04:26;100458.44;;;22.56;80.60
24422;BME280;12600;53.326;-6.298;2022-08-02T03:07:16;100447.28;;;22.60;80.19
24422;BME280;12600;53.326;-6.298;2022-08-02T03:09:45;100450.47;;;22.51;80.46
24422;BME280;12600;53.326;-6.298;2022-08-02T03:12:23;100444.91;;;22.58;79.97
24422;BME280;12600;53.326;-6.298;2022-08-02T03:15:00;100446.91;;;22.61;80.29
24422;BME280;12600;53.326;-6.298;2022-08-02T03:17:40;100448.09;;;22.60;79.93
24422;BME280;12600;53.326;-6.298;2022-08-02T03:20:12;100442.94;;;22.55;80.13
24422;BME280;12600;53.326;-6.298;2022-08-02T03:22:43;100442.53;;;22.64;79.66
24422;BME280;12600;53.326;-6.298;2022-08-02T03:25:14;100425.03;;;22.64;79.64
24422;BME280;12600;53.326;-6.298;2022-08-02T03:27:43;100408.72;;;22.62;79.45
24422;BME280;12600;53.326;-6.298;2022-08-02T03:30:14;100410.31;;;22.67;79.50
24422;BME280;12600;53.326;-6.298;2022-08-02T03:32:46;100403.16;;;22.62;79.63
24422;BME280;12600;53.326;-6.298;2022-08-02T03:35:17;100405.16;;;22.54;80.20
24422;BME280;12600;53.326;-6.298;2022-08-02T03:37:52;100391.19;;;22.51;80.38
24422;BME280;12600;53.326;-6.298;2022-08-02T03:40:23;100377.28;;;22.47;80.09
24422;BME280;12600;53.326;-6.298;2022-08-02T03:42:53;100388.81;;;22.49;80.52
24422;BME280;12600;53.326;-6.298;2022-08-02T03:45:23;100385.25;;;22.49;80.60
24422;BME280;12600;53.326;-6.298;2022-08-02T03:47:55;100377.28;;;22.47;80.53
24422;BME280;12600;53.326;-6.298;2022-08-02T03:50:26;100379.66;;;22.42;80.96
24422;BME280;12600;53.326;-6.298;2022-08-02T03:55:25;100369.31;;;22.28;81.52
24422;BME280;12600;53.326;-6.298;2022-08-02T03:57:54;100368.53;;;22.34;81.34
24422;BME280;12600;53.326;-6.298;2022-08-02T04:00:24;100378.84;;;22.23;82.03
24422;BME280;12600;53.326;-6.298;2022-08-02T04:02:55;100366.91;;;22.19;82.50
24422;BME280;12600;53.326;-6.298;2022-08-02T04:05:25;100368.13;;;22.25;81.92
24422;BME280;12600;53.326;-6.298;2022-08-02T04:07:54;100375.66;;;22.14;82.19
24422;BME280;12600;53.326;-6.298;2022-08-02T04:10:44;100387.97;;;22.20;82.31
24422;BME280;12600;53.326;-6.298;2022-08-02T04:13:34;100394.28;;;22.03;82.63
24422;BME280;12600;53.326;-6.298;2022-08-02T04:16:11;100393.16;;;22.25;82.24
24422;BME280;12600;53.326;-6.298;2022-08-02T04:18:53;100392.75;;;22.16;82.98
24422;BME280;12600;53.326;-6.298;2022-08-02T04:21:27;100362.13;;;22.16;82.63
24422;BME280;12600;53.326;-6.298;2022-08-02T04:24:17;100374.88;;;22.24;82.11
24422;BME280;12600;53.326;-6.298;2022-08-02T04:26:58;100368.50;;;22.20;82.40
24422;BME280;12600;53.326;-6.298;2022-08-02T04:29:47;100396.34;;;22.24;82.63
24422;BME280;12600;53.326;-6.298;2022-08-02T04:32:17;100370.91;;;22.25;82.38
24422;BME280;12600;53.326;-6.298;2022-08-02T04:34:51;100378.47;;;22.25;82.52
24422;BME280;12600;53.326;-6.298;2022-08-02T04:37:42;100380.41;;;22.10;83.08
24422;BME280;12600;53.326;-6.298;2022-08-02T04:40:31;100377.25;;;22.15;82.95
24422;BME280;12600;53.326;-6.298;2022-08-02T04:43:00;100373.66;;;22.08;82.89
24422;BME280;12600;53.326;-6.298;2022-08-02T04:45:32;100335.03;;;21.92;82.78
24422;BME280;12600;53.326;-6.298;2022-08-02T04:48:03;100364.47;;;22.00;82.67
24422;BME280;12600;53.326;-6.298;2022-08-02T04:50:34;100361.28;;;22.05;82.62
24422;BME280;12600;53.326;-6.298;2022-08-02T04:53:04;100353.31;;;21.96;82.45
24422;BME280;12600;53.326;-6.298;2022-08-02T04:55:33;100366.84;;;22.05;82.67
24422;BME280;12600;53.326;-6.298;2022-08-02T04:58:02;100369.28;;;22.10;82.49
24422;BME280;12600;53.326;-6.298;2022-08-02T05:00:51;100381.94;;;22.04;82.78
24422;BME280;12600;53.326;-6.298;2022-08-02T05:03:25;100389.94;;;22.09;82.44
24422;BME280;12600;53.326;-6.298;2022-08-02T05:05:57;100382.00;;;22.08;82.46
24422;BME280;12600;53.326;-6.298;2022-08-02T05:08:27;100380.00;;;22.08;82.25
24422;BME280;12600;53.326;-6.298;2022-08-02T05:10:57;100400.69;;;22.11;82.46
24422;BME280;12600;53.326;-6.298;2022-08-02T05:13:27;100404.25;;;22.08;82.51
24422;BME280;12600;53.326;-6.298;2022-08-02T05:15:56;100394.72;;;22.19;82.34
24422;BME280;12600;53.326;-6.298;2022-08-02T05:18:28;100393.94;;;22.19;82.02
24422;BME280;12600;53.326;-6.298;2022-08-02T05:20:59;100378.84;;;22.16;81.97
24422;BME280;12600;53.326;-6.298;2022-08-02T05:23:30;100392.34;;;22.21;82.26
24422;BME280;12600;53.326;-6.298;2022-08-02T05:26:02;100374.47;;;22.19;82.02
24422;BME280;12600;53.326;-6.298;2022-08-02T05:28:31;100388.38;;;22.19;82.08
24422;BME280;12600;53.326;-6.298;2022-08-02T05:31:03;100370.88;;;22.15;82.01
24422;BME280;12600;53.326;-6.298;2022-08-02T05:33:39;100364.53;;;22.18;82.31
24422;BME280;12600;53.326;-6.298;2022-08-02T05:36:10;100367.69;;;22.13;82.87
24422;BME280;12600;53.326;-6.298;2022-08-02T05:38:39;100363.31;;;22.08;82.92
24422;BME280;12600;53.326;-6.298;2022-08-02T05:41:16;100353.78;;;22.13;82.53
24422;BME280;12600;53.326;-6.298;2022-08-02T05:43:46;100358.09;;;21.99;83.29
24422;BME280;12600;53.326;-6.298;2022-08-02T05:46:15;100366.06;;;22.01;83.49
24422;BME280;12600;53.326;-6.298;2022-08-02T05:48:45;100364.44;;;21.96;83.89
24422;BME280;12600;53.326;-6.298;2022-08-02T05:51:22;100381.13;;;21.96;83.89
24422;BME280;12600;53.326;-6.298;2022-08-02T05:53:59;100387.06;;;21.84;84.93
24422;BME280;12600;53.326;-6.298;2022-08-02T05:56:33;100375.53;;;21.86;84.80
24422;BME280;12600;53.326;-6.298;2022-08-02T05:59:17;100384.69;;;21.83;85.27
24422;BME280;12600;53.326;-6.298;2022-08-02T06:01:55;100382.66;;;21.79;84.80
24422;BME280;12600;53.326;-6.298;2022-08-02T06:04:39;100387.84;;;21.81;84.92
24422;BME280;12600;53.326;-6.298;2022-08-02T06:07:14;100380.28;;;21.82;85.27
24422;BME280;12600;53.326;-6.298;2022-08-02T06:09:47;100381.91;;;21.83;84.96
24422;BME280;12600;53.326;-6.298;2022-08-02T06:12:17;100384.59;;;21.65;85.68
24422;BME280;12600;53.326;-6.298;2022-08-02T06:14:47;100380.66;;;21.66;86.28
24422;BME280;12600;53.326;-6.298;2022-08-02T06:17:21;100379.84;;;21.72;85.83
24422;BME280;12600;53.326;-6.298;2022-08-02T06:19:54;100383.44;;;21.69;86.24
24422;BME280;12600;53.326;-6.298;2022-08-02T06:22:27;100377.88;;;21.69;86.35
24422;BME280;12600;53.326;-6.298;2022-08-02T06:25:06;100370.69;;;21.65;86.39
24422;BME280;12600;53.326;-6.298;2022-08-02T06:27:57;100388.63;;;21.74;86.75
24422;BME280;12600;53.326;-6.298;2022-08-02T06:30:27;100394.97;;;21.78;86.23
24422;BME280;12600;53.326;-6.298;2022-08-02T06:32:56;100399.38;;;21.83;86.10
24422;BME280;12600;53.326;-6.298;2022-08-02T06:35:33;100396.97;;;21.82;85.87
24422;BME280;12600;53.326;-6.298;2022-08-02T06:38:06;100402.16;;;21.87;85.55
24422;BME280;12600;53.326;-6.298;2022-08-02T06:40:44;100401.41;;;21.90;85.45
24422;BME280;12600;53.326;-6.298;2022-08-02T06:43:20;100390.69;;;21.99;84.95
24422;BME280;12600;53.326;-6.298;2022-08-02T06:45:51;100394.63;;;21.87;85.58
24422;BME280;12600;53.326;-6.298;2022-08-02T06:48:20;100404.56;;;21.92;85.48
24422;BME280;12600;53.326;-6.298;2022-08-02T06:50:50;100401.41;;;21.93;84.72
24422;BME280;12600;53.326;-6.298;2022-08-02T06:53:21;100404.19;;;21.90;84.26
24422;BME280;12600;53.326;-6.298;2022-08-02T06:55:50;100409.34;;;21.95;83.48
24422;BME280;12600;53.326;-6.298;2022-08-02T06:58:19;100401.47;;;22.08;83.11
24422;BME280;12600;53.326;-6.298;2022-08-02T07:00:49;100392.34;;;22.11;82.85
24422;BME280;12600;53.326;-6.298;2022-08-02T07:03:18;100401.50;;;22.18;82.12
24422;BME280;12600;53.326;-6.298;2022-08-02T07:05:48;100407.47;;;22.20;80.96
24422;BME280;12600;53.326;-6.298;2022-08-02T07:08:18;100404.28;;;22.18;79.98
24422;BME280;12600;53.326;-6.298;2022-08-02T07:10:49;100413.03;;;22.20;78.98
24422;BME280;12600;53.326;-6.298;2022-08-02T07:13:18;100421.78;;;22.22;78.81
24422;BME280;12600;53.326;-6.298;2022-08-02T07:15:47;100410.63;;;22.15;76.83
24422;BME280;12600;53.326;-6.298;2022-08-02T07:18:17;100403.47;;;22.21;76.80
24422;BME280;12600;53.326;-6.298;2022-08-02T07:20:47;100416.22;;;22.29;76.65
24422;BME280;12600;53.326;-6.298;2022-08-02T07:23:16;100418.25;;;22.47;77.14
24422;BME280;12600;53.326;-6.298;2022-08-02T07:25:48;100420.25;;;22.46;76.71
24422;BME280;12600;53.326;-6.298;2022-08-02T07:28:31;100426.59;;;22.61;77.13
24422;BME280;12600;53.326;-6.298;2022-08-02T07:31:00;100425.03;;;22.64;77.29
24422;BME280;12600;53.326;-6.298;2022-08-02T07:33:29;100436.97;;;22.64;77.33
24422;BME280;12600;53.326;-6.298;2022-08-02T07:36:07;100430.59;;;22.74;77.10
24422;BME280;12600;53.326;-6.298;2022-08-02T07:38:46;100442.94;;;22.70;74.75
24422;BME280;12600;53.326;-6.298;2022-08-02T07:41:18;100427.81;;;22.78;73.74
24422;BME280;12600;53.326;-6.298;2022-08-02T07:43:49;100441.75;;;22.81;72.98
24422;BME280;12600;53.326;-6.298;2022-08-02T07:46:19;100425.44;;;22.76;71.53
24422;BME280;12600;53.326;-6.298;2022-08-02T07:48:48;100431.00;;;22.73;71.15
24422;BME280;12600;53.326;-6.298;2022-08-02T07:51:20;100407.13;;;22.65;71.38
24422;BME280;12600;53.326;-6.298;2022-08-02T07:53:50;100417.09;;;22.80;71.56
24422;BME280;12600;53.326;-6.298;2022-08-02T07:56:33;100423.44;;;22.77;71.47
24422;BME280;12600;53.326;-6.298;2022-08-02T07:59:02;100423.88;;;22.86;71.61
24422;BME280;12600;53.326;-6.298;2022-08-02T08:01:31;100433.41;;;22.81;71.41
24422;BME280;12600;53.326;-6.298;2022-08-02T08:04:02;100430.63;;;22.81;71.68
24422;BME280;12600;53.326;-6.298;2022-08-02T08:06:32;100433.00;;;22.83;71.85
24422;BME280;12600;53.326;-6.298;2022-08-02T08:09:01;100440.97;;;22.81;72.01
24422;BME280;12600;53.326;-6.298;2022-08-02T08:11:32;100433.00;;;22.83;72.12
24422;BME280;12600;53.326;-6.298;2022-08-02T08:14:02;100428.63;;;22.78;72.02
24422;BME280;12600;53.326;-6.298;2022-08-02T08:16:31;100442.56;;;22.85;72.52
24422;BME280;12600;53.326;-6.298;2022-08-02T08:19:01;100444.56;;;22.88;72.52
24422;BME280;12600;53.326;-6.298;2022-08-02T08:21:31;100444.97;;;22.94;72.72
24422;BME280;12600;53.326;-6.298;2022-08-02T08:24:02;100444.97;;;22.94;72.91
24422;BME280;12600;53.326;-6.298;2022-08-02T08:26:33;100443.38;;;22.93;73.26
24422;BME280;12600;53.326;-6.298;2022-08-02T08:29:03;100445.34;;;23.00;73.18
24422;BME280;12600;53.326;-6.298;2022-08-02T08:31:33;100446.94;;;22.94;73.13
24422;BME280;12600;53.326;-6.298;2022-08-02T08:34:02;100441.78;;;22.88;72.79
24422;BME280;12600;53.326;-6.298;2022-08-02T08:36:32;100450.94;;;22.96;72.77
24422;BME280;12600;53.326;-6.298;2022-08-02T08:39:02;100444.97;;;22.98;72.62
24422;BME280;12600;53.326;-6.298;2022-08-02T08:41:33;100441.78;;;22.99;72.94
24422;BME280;12600;53.326;-6.298;2022-08-02T08:44:03;100448.94;;;22.93;73.15
24422;BME280;12600;53.326;-6.298;2022-08-02T08:46:37;100463.22;;;22.84;72.88
24422;BME280;12600;53.326;-6.298;2022-08-02T08:49:11;100442.56;;;22.93;72.67
24422;BME280;12600;53.326;-6.298;2022-08-02T08:51:44;100462.88;;;22.89;73.05
24422;BME280;12600;53.326;-6.298;2022-08-02T08:54:16;100438.19;;;22.92;72.97
24422;BME280;12600;53.326;-6.298;2022-08-02T08:56:48;100450.53;;;23.05;72.65
24422;BME280;12600;53.326;-6.298;2022-08-02T08:59:17;100433.81;;;23.12;72.25
24422;BME280;12600;53.326;-6.298;2022-08-02T09:01:48;100452.50;;;23.29;71.65
24422;BME280;12600;53.326;-6.298;2022-08-02T09:04:18;100450.50;;;23.33;71.32
24422;BME280;12600;53.326;-6.298;2022-08-02T09:06:47;100454.47;;;23.39;71.07
24422;BME280;12600;53.326;-6.298;2022-08-02T09:09:17;100444.13;;;23.40;70.67
24422;BME280;12600;53.326;-6.298;2022-08-02T09:11:48;100443.69;;;23.52;70.63
24422;BME280;12600;53.326;-6.298;2022-08-02T09:14:28;100450.06;;;23.42;70.47
24422;BME280;12600;53.326;-6.298;2022-08-02T09:17:07;100443.69;;;23.56;69.81
24422;BME280;12600;53.326;-6.298;2022-08-02T09:19:37;100451.19;;;23.80;70.01
24422;BME280;12600;53.326;-6.298;2022-08-02T09:22:13;100446.38;;;23.91;68.25
24422;BME280;12600;53.326;-6.298;2022-08-02T09:24:45;100444.72;;;24.05;67.53
24422;BME280;12600;53.326;-6.298;2022-08-02T09:27:18;100453.00;;;24.26;66.55
24422;BME280;12600;53.326;-6.298;2022-08-02T09:29:49;100456.91;;;24.46;65.45
24422;BME280;12600;53.326;-6.298;2022-08-02T09:32:44;100466.13;;;24.95;64.16
24422;BME280;12600;53.326;-6.298;2022-08-02T09:35:28;100455.66;;;25.06;63.00
24422;BME280;12600;53.326;-6.298;2022-08-02T09:38:18;100457.50;;;25.27;61.40
24422;BME280;12600;53.326;-6.298;2022-08-02T09:40:48;100463.75;;;25.38;60.92
24422;BME280;12600;53.326;-6.298;2022-08-02T09:43:18;100451.78;;;25.34;59.53
24422;BME280;12600;53.326;-6.298;2022-08-02T09:45:48;100448.91;;;25.45;59.51
24422;BME280;12600;53.326;-6.298;2022-08-02T09:48:17;100456.13;;;25.80;59.26
24422;BME280;12600;53.326;-6.298;2022-08-02T09:50:46;100456.84;;;26.18;59.13
24422;BME280;12600;53.326;-6.298;2022-08-02T09:53:16;100472.56;;;26.43;56.51
24422;BME280;12600;53.326;-6.298;2022-08-02T09:55:54;100457.34;;;26.94;55.83
24422;BME280;12600;53.326;-6.298;2022-08-02T09:58:25;100470.13;;;27.22;55.24
24422;BME280;12600;53.326;-6.298;2022-08-02T10:00:57;100464.75;;;27.08;53.18
24422;BME280;12600;53.326;-6.298;2022-08-02T10:03:27;100460.72;;;27.09;54.28
24422;BME280;12600;53.326;-6.298;2022-08-02T10:06:04;100457.09;;;26.85;54.20
24422;BME280;12600;53.326;-6.298;2022-08-02T10:08:33;100464.31;;;26.59;54.08
24422;BME280;12600;53.326;-6.298;2022-08-02T10:11:02;100463.16;;;26.26;55.10
24422;BME280;12600;53.326;-6.298;2022-08-02T10:13:34;100472.00;;;25.90;56.00
24422;BME280;12600;53.326;-6.298;2022-08-02T10:16:05;100475.06;;;25.65;57.30
24422;BME280;12600;53.326;-6.298;2022-08-02T10:18:34;100484.91;;;25.43;58.14
24422;BME280;12600;53.326;-6.298;2022-08-02T10:21:14;100469.59;;;25.14;59.28
24422;BME280;12600;53.326;-6.298;2022-08-02T10:23:49;100476.13;;;24.93;60.47
24422;BME280;12600;53.326;-6.298;2022-08-02T10:26:20;100474.94;;;24.90;61.19
24422;BME280;12600;53.326;-6.298;2022-08-02T10:28:52;100479.75;;;24.86;61.76
24422;BME280;12600;53.326;-6.298;2022-08-02T10:31:27;100489.47;;;24.67;62.54
24422;BME280;12600;53.326;-6.298;2022-08-02T10:34:00;100492.69;;;24.62;63.50
24422;BME280;12600;53.326;-6.298;2022-08-02T10:36:31;100489.19;;;24.54;64.00
24422;BME280;12600;53.326;-6.298;2022-08-02T10:39:02;100467.66;;;24.44;64.36
24422;BME280;12600;53.326;-6.298;2022-08-02T10:41:46;100473.72;;;24.39;64.90
24422;BME280;12600;53.326;-6.298;2022-08-02T10:44:24;100479.31;;;24.32;65.47
24422;BME280;12600;53.326;-6.298;2022-08-02T10:47:22;100476.16;;;24.23;65.07
24422;BME280;12600;53.326;-6.298;2022-08-02T10:49:53;100474.91;;;24.27;65.34
24422;BME280;12600;53.326;-6.298;2022-08-02T10:52:24;100470.13;;;24.35;65.15
24422;BME280;12600;53.326;-6.298;2022-08-02T10:54:57;100487.66;;;24.39;64.92
24422;BME280;12600;53.326;-6.298;2022-08-02T10:57:29;100478.81;;;24.51;65.20
24422;BME280;12600;53.326;-6.298;2022-08-02T11:00:24;100491.09;;;24.65;64.91
24422;BME280;12600;53.326;-6.298;2022-08-02T11:02:53;100503.41;;;24.74;64.95
24422;BME280;12600;53.326;-6.298;2022-08-02T11:05:28;100481.78;;;24.82;64.64
24422;BME280;12600;53.326;-6.298;2022-08-02T11:08:28;100487.38;;;24.82;64.17
24422;BME280;12600;53.326;-6.298;2022-08-02T11:10:58;100487.44;;;24.75;64.34
24422;BME280;12600;53.326;-6.298;2022-08-02T11:13:28;100499.78;;;24.81;64.32
24422;BME280;12600;53.326;-6.298;2022-08-02T11:16:01;100488.25;;;24.72;63.93
24422;BME280;12600;53.326;-6.298;2022-08-02T11:19:03;100499.03;;;24.70;64.19
24422;BME280;12600;53.326;-6.298;2022-08-02T11:21:34;100506.16;;;24.78;64.68
24422;BME280;12600;53.326;-6.298;2022-08-02T11:24:29;100499.03;;;24.70;64.93
24422;BME280;12600;53.326;-6.298;2022-08-02T11:27:00;100499.34;;;24.82;65.22
24422;BME280;12600;53.326;-6.298;2022-08-02T11:29:36;100499.44;;;24.68;66.04
24422;BME280;12600;53.326;-6.298;2022-08-02T11:32:14;100495.38;;;24.80;65.78
24422;BME280;12600;53.326;-6.298;2022-08-02T11:34:48;100491.81;;;24.76;66.49
24422;BME280;12600;53.326;-6.298;2022-08-02T11:37:27;100479.66;;;25.00;65.87
24422;BME280;12600;53.326;-6.298;2022-08-02T11:39:57;100479.94;;;25.17;65.46
24422;BME280;12600;53.326;-6.298;2022-08-02T11:42:31;100487.53;;;25.20;64.93
24422;BME280;12600;53.326;-6.298;2022-08-02T11:45:02;100480.97;;;25.37;64.96
24422;BME280;12600;53.326;-6.298;2022-08-02T11:47:33;100479.69;;;25.45;65.29
24422;BME280;12600;53.326;-6.298;2022-08-02T11:50:13;100488.81;;;25.53;64.88
24422;BME280;12600;53.326;-6.298;2022-08-02T11:52:45;100480.91;;;25.44;65.03
24422;BME280;12600;53.326;-6.298;2022-08-02T11:55:15;100487.66;;;25.47;65.34
24422;BME280;12600;53.326;-6.298;2022-08-02T11:57:44;100488.75;;;25.56;65.47
24422;BME280;12600;53.326;-6.298;2022-08-02T12:00:31;100467.50;;;25.62;65.52
24422;BME280;12600;53.326;-6.298;2022-08-02T12:03:02;100484.84;;;25.88;64.81
24422;BME280;12600;53.326;-6.298;2022-08-02T12:05:32;100424.28;;;25.67;64.71
24422;BME280;12600;53.326;-6.298;2022-08-02T12:08:21;100473.19;;;26.24;63.11
24422;BME280;12600;53.326;-6.298;2022-08-02T12:10:54;100469.47;;;26.34;62.91
24422;BME280;12600;53.326;-6.298;2022-08-02T12:13:23;100462.13;;;26.43;62.17
24422;BME280;12600;53.326;-6.298;2022-08-02T12:15:52;100457.78;;;26.39;61.06
24422;BME280;12600;53.326;-6.298;2022-08-02T12:18:49;100453.63;;;26.51;60.60
24422;BME280;12600;53.326;-6.298;2022-08-02T12:21:35;100451.97;;;26.53;61.12
24422;BME280;12600;53.326;-6.298;2022-08-02T12:24:05;100458.34;;;26.57;59.94
24422;BME280;12600;53.326;-6.298;2022-08-02T12:26:42;100457.28;;;26.74;59.97
24422;BME280;12600;53.326;-6.298;2022-08-02T12:29:12;100438.13;;;26.93;59.92
24422;BME280;12600;53.326;-6.298;2022-08-02T12:32:02;100448.88;;;26.98;58.76
24422;BME280;12600;53.326;-6.298;2022-08-02T12:34:34;100450.00;;;27.04;58.73
24422;BME280;12600;53.326;-6.298;2022-08-02T12:37:07;100443.53;;;27.07;58.84
24422;BME280;12600;53.326;-6.298;2022-08-02T12:39:39;100451.31;;;26.96;58.94
24422;BME280;12600;53.326;-6.298;2022-08-02T12:42:10;100444.19;;;26.91;60.69
24422;BME280;12600;53.326;-6.298;2022-08-02T12:44:50;100444.28;;;26.84;60.78
24422;BME280;12600;53.326;-6.298;2022-08-02T12:47:20;100435.88;;;27.11;61.87
24422;BME280;12600;53.326;-6.298;2022-08-02T12:50:13;100434.78;;;27.01;59.80
24422;BME280;12600;53.326;-6.298;2022-08-02T12:52:43;100443.31;;;26.94;59.79
24422;BME280;12600;53.326;-6.298;2022-08-02T12:55:18;100422.22;;;26.86;60.02
24422;BME280;12600;53.326;-6.298;2022-08-02T12:57:54;100439.09;;;27.10;59.65
24422;BME280;12600;53.326;-6.298;2022-08-02T13:00:26;100438.50;;;27.85;59.18
24422;BME280;12600;53.326;-6.298;2022-08-02T13:02:57;100438.75;;;28.47;57.58
24422;BME280;12600;53.326;-6.298;2022-08-02T13:05:29;100441.59;;;28.95;55.08
24422;BME280;12600;53.326;-6.298;2022-08-02T13:08:19;100436.41;;;29.10;52.87
24422;BME280;12600;53.326;-6.298;2022-08-02T13:10:48;100445.13;;;29.16;52.54
24422;BME280;12600;53.326;-6.298;2022-08-02T13:13:17;100444.63;;;29.05;51.35
24422;BME280;12600;53.326;-6.298;2022-08-02T13:15:48;100434.22;;;29.02;51.00
24422;BME280;12600;53.326;-6.298;2022-08-02T13:18:18;100435.53;;;29.13;51.76
24422;BME280;12600;53.326;-6.298;2022-08-02T13:20:49;100438.78;;;28.95;51.52